sensor_id;sensor_type;location;lat;lon;timestamp;P1;durP1;ratioP1;P2;durP2;ratioP2
79566;SDS011;69030;48.126;7.816;2023-07-02T00:01:30;2.50;;;0.93;;
79566;SDS011;69030;48.126;7.816;2023-07-02T00:03:55;1.33;;;0.85;;
79566;SDS011;69030;48.126;7.816;2023-07-02T00:06:21;2.00;;;1.15;;
79566;SDS011;69030;48.126;7.816;2023-07-02T00:08:46;2.70;;;1.35;;
79566;SDS011;69030;48.126;7.816;2023-07-02T00:11:13;1.50;;;0.75;;
79566;SDS011;69030;48.126;7.816;2023-07-02T00:13:40;2.05;;;1.00;;
79566;SDS011;69030;48.126;7.816;2023-07-02T00:16:05;4.32;;;2.65;;
79566;SDS011;69030;48.126;7.816;2023-07-02T00:18:31;2.22;;;1.50;;
79566;SDS011;69030;48.126;7.816;2023-07-02T00:23:25;2.05;;;1.25;;
79566;SDS011;69030;48.126;7.816;2023-07-02T00:25:50;1.88;;;1.02;;
79566;SDS011;69030;48.126;7.816;2023-07-02T00:28:16;1.80;;;1.08;;
79566;SDS011;69030;48.126;7.816;2023-07-02T00:30:42;2.53;;;1.17;;
79566;SDS011;69030;48.126;7.816;2023-07-02T00:33:08;2.30;;;1.35;;
79566;SDS011;69030;48.126;7.816;2023-07-02T00:35:33;2.67;;;1.45;;
79566;SDS011;69030;48.126;7.816;2023-07-02T00:37:59;4.20;;;2.13;;
79566;SDS011;69030;48.126;7.816;2023-07-02T00:40:26;2.58;;;1.83;;
79566;SDS011;69030;48.126;7.816;2023-07-02T00:45:17;1.88;;;1.08;;
79566;SDS011;69030;48.126;7.816;2023-07-02T00:47:42;2.38;;;1.15;;
79566;SDS011;69030;48.126;7.816;2023-07-02T00:50:09;2.65;;;1.30;;
79566;SDS011;69030;48.126;7.816;2023-07-02T00:52:35;2.20;;;1.40;;
79566;SDS011;69030;48.126;7.816;2023-07-02T00:55:00;3.50;;;1.92;;
79566;SDS011;69030;48.126;7.816;2023-07-02T00:57:26;3.08;;;1.23;;
79566;SDS011;69030;48.126;7.816;2023-07-02T00:59:54;5.45;;;2.00;;
79566;SDS011;69030;48.126;7.816;2023-07-02T01:02:21;2.15;;;1.52;;
79566;SDS011;69030;48.126;7.816;2023-07-02T01:04:50;5.97;;;1.63;;
79566;SDS011;69030;48.126;7.816;2023-07-02T01:07:22;2.58;;;1.40;;
79566;SDS011;69030;48.126;7.816;2023-07-02T01:09:48;2.22;;;1.25;;
79566;SDS011;69030;48.126;7.816;2023-07-02T01:12:13;3.80;;;1.67;;
79566;SDS011;69030;48.126;7.816;2023-07-02T01:14:44;4.05;;;1.45;;
79566;SDS011;69030;48.126;7.816;2023-07-02T01:17:13;3.50;;;1.38;;
79566;SDS011;69030;48.126;7.816;2023-07-02T01:22:21;2.35;;;1.73;;
79566;SDS011;69030;48.126;7.816;2023-07-02T01:24:48;3.17;;;1.55;;
79566;SDS011;69030;48.126;7.816;2023-07-02T01:27:15;3.60;;;1.95;;
79566;SDS011;69030;48.126;7.816;2023-07-02T01:29:41;2.95;;;1.55;;
79566;SDS011;69030;48.126;7.816;2023-07-02T01:32:07;4.47;;;1.75;;
79566;SDS011;69030;48.126;7.816;2023-07-02T01:34:33;2.60;;;2.05;;
79566;SDS011;69030;48.126;7.816;2023-07-02T01:36:59;3.03;;;1.58;;
79566;SDS011;69030;48.126;7.816;2023-07-02T01:39:24;3.40;;;2.05;;
79566;SDS011;69030;48.126;7.816;2023-07-02T01:41:53;4.32;;;1.75;;
79566;SDS011;69030;48.126;7.816;2023-07-02T01:44:20;4.65;;;1.80;;
79566;SDS011;69030;48.126;7.816;2023-07-02T01:46:46;6.90;;;2.35;;
79566;SDS011;69030;48.126;7.816;2023-07-02T01:49:22;2.97;;;1.83;;
79566;SDS011;69030;48.126;7.816;2023-07-02T01:51:51;5.13;;;2.35;;
79566;SDS011;69030;48.126;7.816;2023-07-02T01:54:17;3.05;;;1.95;;
79566;SDS011;69030;48.126;7.816;2023-07-02T01:56:43;3.33;;;1.77;;
79566;SDS011;69030;48.126;7.816;2023-07-02T01:59:08;3.30;;;1.33;;
79566;SDS011;69030;48.126;7.816;2023-07-02T02:01:34;2.67;;;1.85;;
79566;SDS011;69030;48.126;7.816;2023-07-02T02:03:59;3.38;;;2.17;;
79566;SDS011;69030;48.126;7.816;2023-07-02T02:06:25;4.97;;;2.17;;
79566;SDS011;69030;48.126;7.816;2023-07-02T02:08:50;3.70;;;1.80;;
79566;SDS011;69030;48.126;7.816;2023-07-02T02:11:16;5.70;;;1.85;;
79566;SDS011;69030;48.126;7.816;2023-07-02T02:13:41;5.00;;;1.88;;
79566;SDS011;69030;48.126;7.816;2023-07-02T02:16:06;5.85;;;2.00;;
79566;SDS011;69030;48.126;7.816;2023-07-02T02:18:32;3.17;;;1.27;;
79566;SDS011;69030;48.126;7.816;2023-07-02T02:20:57;4.18;;;2.17;;
79566;SDS011;69030;48.126;7.816;2023-07-02T02:23:23;3.50;;;1.98;;
79566;SDS011;69030;48.126;7.816;2023-07-02T02:25:48;4.18;;;1.80;;
79566;SDS011;69030;48.126;7.816;2023-07-02T02:28:13;3.10;;;1.83;;
79566;SDS011;69030;48.126;7.816;2023-07-02T02:30:39;3.20;;;1.98;;
79566;SDS011;69030;48.126;7.816;2023-07-02T02:33:04;5.82;;;2.35;;
79566;SDS011;69030;48.126;7.816;2023-07-02T02:35:30;4.90;;;1.83;;
79566;SDS011;69030;48.126;7.816;2023-07-02T02:37:55;4.57;;;2.03;;
79566;SDS011;69030;48.126;7.816;2023-07-02T02:40:20;2.90;;;1.58;;
79566;SDS011;69030;48.126;7.816;2023-07-02T02:42:46;3.25;;;1.77;;
79566;SDS011;69030;48.126;7.816;2023-07-02T02:45:11;3.00;;;1.98;;
79566;SDS011;69030;48.126;7.816;2023-07-02T02:47:37;3.53;;;1.88;;
79566;SDS011;69030;48.126;7.816;2023-07-02T02:50:02;3.58;;;2.03;;
79566;SDS011;69030;48.126;7.816;2023-07-02T02:52:28;2.95;;;2.08;;
79566;SDS011;69030;48.126;7.816;2023-07-02T02:54:54;6.30;;;2.03;;
79566;SDS011;69030;48.126;7.816;2023-07-02T02:57:19;3.58;;;2.15;;
79566;SDS011;69030;48.126;7.816;2023-07-02T02:59:44;4.28;;;2.70;;
79566;SDS011;69030;48.126;7.816;2023-07-02T03:02:10;5.75;;;2.08;;
79566;SDS011;69030;48.126;7.816;2023-07-02T03:04:36;5.47;;;2.40;;
79566;SDS011;69030;48.126;7.816;2023-07-02T03:07:06;6.25;;;3.08;;
79566;SDS011;69030;48.126;7.816;2023-07-02T03:09:32;4.93;;;2.35;;
79566;SDS011;69030;48.126;7.816;2023-07-02T03:11:58;5.07;;;2.67;;
79566;SDS011;69030;48.126;7.816;2023-07-02T03:14:23;5.40;;;2.30;;
79566;SDS011;69030;48.126;7.816;2023-07-02T03:16:48;5.80;;;1.95;;
79566;SDS011;69030;48.126;7.816;2023-07-02T03:19:14;5.55;;;2.20;;
79566;SDS011;69030;48.126;7.816;2023-07-02T03:21:41;3.50;;;2.50;;
79566;SDS011;69030;48.126;7.816;2023-07-02T03:24:08;4.97;;;2.60;;
79566;SDS011;69030;48.126;7.816;2023-07-02T03:26:35;4.15;;;2.10;;
79566;SDS011;69030;48.126;7.816;2023-07-02T03:29:00;3.58;;;1.95;;
79566;SDS011;69030;48.126;7.816;2023-07-02T03:31:26;3.55;;;2.10;;
79566;SDS011;69030;48.126;7.816;2023-07-02T03:33:51;4.15;;;2.33;;
79566;SDS011;69030;48.126;7.816;2023-07-02T03:36:16;5.25;;;2.33;;
79566;SDS011;69030;48.126;7.816;2023-07-02T03:38:42;3.38;;;2.15;;
79566;SDS011;69030;48.126;7.816;2023-07-02T03:41:07;3.70;;;2.40;;
79566;SDS011;69030;48.126;7.816;2023-07-02T03:43:32;3.72;;;2.47;;
79566;SDS011;69030;48.126;7.816;2023-07-02T03:45:58;3.28;;;1.60;;
79566;SDS011;69030;48.126;7.816;2023-07-02T03:48:23;4.07;;;2.47;;
79566;SDS011;69030;48.126;7.816;2023-07-02T03:50:48;6.07;;;2.42;;
79566;SDS011;69030;48.126;7.816;2023-07-02T03:53:14;4.25;;;2.42;;
79566;SDS011;69030;48.126;7.816;2023-07-02T03:55:39;4.20;;;1.88;;
79566;SDS011;69030;48.126;7.816;2023-07-02T03:58:05;8.00;;;2.22;;
79566;SDS011;69030;48.126;7.816;2023-07-02T04:00:30;4.38;;;2.30;;
79566;SDS011;69030;48.126;7.816;2023-07-02T04:02:56;4.57;;;2.40;;
79566;SDS011;69030;48.126;7.816;2023-07-02T04:05:21;4.55;;;2.28;;
79566;SDS011;69030;48.126;7.816;2023-07-02T04:07:46;4.57;;;2.03;;
79566;SDS011;69030;48.126;7.816;2023-07-02T04:10:12;3.75;;;2.58;;
79566;SDS011;69030;48.126;7.816;2023-07-02T04:12:37;3.70;;;2.53;;
79566;SDS011;69030;48.126;7.816;2023-07-02T04:15:03;7.07;;;2.65;;
79566;SDS011;69030;48.126;7.816;2023-07-02T04:17:30;5.00;;;4.15;;
79566;SDS011;69030;48.126;7.816;2023-07-02T04:19:55;4.47;;;2.35;;
79566;SDS011;69030;48.126;7.816;2023-07-02T04:22:21;4.47;;;3.20;;
79566;SDS011;69030;48.126;7.816;2023-07-02T04:24:46;7.55;;;2.92;;
79566;SDS011;69030;48.126;7.816;2023-07-02T04:27:13;5.50;;;2.55;;
79566;SDS011;69030;48.126;7.816;2023-07-02T04:29:45;9.25;;;2.75;;
79566;SDS011;69030;48.126;7.816;2023-07-02T04:32:10;7.45;;;2.63;;
79566;SDS011;69030;48.126;7.816;2023-07-02T04:34:36;4.30;;;2.50;;
79566;SDS011;69030;48.126;7.816;2023-07-02T04:37:02;7.00;;;4.35;;
79566;SDS011;69030;48.126;7.816;2023-07-02T04:39:29;7.88;;;4.45;;
79566;SDS011;69030;48.126;7.816;2023-07-02T04:41:54;5.95;;;2.95;;
79566;SDS011;69030;48.126;7.816;2023-07-02T04:44:19;7.78;;;2.83;;
79566;SDS011;69030;48.126;7.816;2023-07-02T04:46:47;5.05;;;1.95;;
79566;SDS011;69030;48.126;7.816;2023-07-02T04:49:13;6.53;;;3.08;;
79566;SDS011;69030;48.126;7.816;2023-07-02T04:51:38;6.70;;;3.42;;
79566;SDS011;69030;48.126;7.816;2023-07-02T04:54:04;12.68;;;3.92;;
79566;SDS011;69030;48.126;7.816;2023-07-02T04:56:29;5.95;;;2.75;;
79566;SDS011;69030;48.126;7.816;2023-07-02T04:58:54;5.97;;;2.85;;
79566;SDS011;69030;48.126;7.816;2023-07-02T05:01:20;5.70;;;3.30;;
79566;SDS011;69030;48.126;7.816;2023-07-02T05:03:45;7.32;;;3.97;;
79566;SDS011;69030;48.126;7.816;2023-07-02T05:06:11;6.07;;;2.92;;
79566;SDS011;69030;48.126;7.816;2023-07-02T05:08:36;7.50;;;3.92;;
79566;SDS011;69030;48.126;7.816;2023-07-02T05:11:01;6.85;;;3.17;;
79566;SDS011;69030;48.126;7.816;2023-07-02T05:13:27;9.40;;;4.38;;
79566;SDS011;69030;48.126;7.816;2023-07-02T05:15:52;9.07;;;3.90;;
79566;SDS011;69030;48.126;7.816;2023-07-02T05:18:18;10.95;;;4.22;;
79566;SDS011;69030;48.126;7.816;2023-07-02T05:20:43;9.88;;;4.80;;
79566;SDS011;69030;48.126;7.816;2023-07-02T05:23:08;8.70;;;4.82;;
79566;SDS011;69030;48.126;7.816;2023-07-02T05:25:34;11.18;;;4.82;;
79566;SDS011;69030;48.126;7.816;2023-07-02T05:27:59;13.20;;;6.90;;
79566;SDS011;69030;48.126;7.816;2023-07-02T05:30:24;9.52;;;4.65;;
79566;SDS011;69030;48.126;7.816;2023-07-02T05:32:50;13.10;;;6.30;;
79566;SDS011;69030;48.126;7.816;2023-07-02T05:35:15;13.63;;;7.10;;
79566;SDS011;69030;48.126;7.816;2023-07-02T05:37:40;15.38;;;6.50;;
79566;SDS011;69030;48.126;7.816;2023-07-02T05:40:06;15.20;;;8.27;;
79566;SDS011;69030;48.126;7.816;2023-07-02T05:42:32;18.20;;;8.45;;
79566;SDS011;69030;48.126;7.816;2023-07-02T05:44:57;17.52;;;8.07;;
79566;SDS011;69030;48.126;7.816;2023-07-02T05:47:22;16.08;;;8.00;;
79566;SDS011;69030;48.126;7.816;2023-07-02T05:49:47;15.10;;;6.68;;
79566;SDS011;69030;48.126;7.816;2023-07-02T05:52:13;16.20;;;9.45;;
79566;SDS011;69030;48.126;7.816;2023-07-02T05:54:39;18.92;;;8.23;;
79566;SDS011;69030;48.126;7.816;2023-07-02T05:57:05;14.88;;;7.93;;
79566;SDS011;69030;48.126;7.816;2023-07-02T05:59:31;15.88;;;7.90;;
79566;SDS011;69030;48.126;7.816;2023-07-02T06:01:56;16.50;;;8.90;;
79566;SDS011;69030;48.126;7.816;2023-07-02T06:04:22;15.63;;;8.77;;
79566;SDS011;69030;48.126;7.816;2023-07-02T06:06:47;21.08;;;8.75;;
79566;SDS011;69030;48.126;7.816;2023-07-02T06:09:12;16.35;;;8.48;;
79566;SDS011;69030;48.126;7.816;2023-07-02T06:11:38;16.95;;;8.45;;
79566;SDS011;69030;48.126;7.816;2023-07-02T06:14:03;17.42;;;9.48;;
79566;SDS011;69030;48.126;7.816;2023-07-02T06:16:28;17.38;;;8.93;;
79566;SDS011;69030;48.126;7.816;2023-07-02T06:18:54;15.18;;;9.23;;
79566;SDS011;69030;48.126;7.816;2023-07-02T06:21:19;24.33;;;8.68;;
79566;SDS011;69030;48.126;7.816;2023-07-02T06:23:45;18.30;;;8.43;;
79566;SDS011;69030;48.126;7.816;2023-07-02T06:26:10;21.15;;;9.50;;
79566;SDS011;69030;48.126;7.816;2023-07-02T06:28:36;17.20;;;9.18;;
79566;SDS011;69030;48.126;7.816;2023-07-02T06:31:01;15.77;;;8.60;;
79566;SDS011;69030;48.126;7.816;2023-07-02T06:33:27;19.05;;;8.57;;
79566;SDS011;69030;48.126;7.816;2023-07-02T06:35:52;19.70;;;8.68;;
79566;SDS011;69030;48.126;7.816;2023-07-02T06:38:18;20.83;;;8.70;;
79566;SDS011;69030;48.126;7.816;2023-07-02T06:40:43;17.85;;;9.10;;
79566;SDS011;69030;48.126;7.816;2023-07-02T06:43:08;19.20;;;9.25;;
79566;SDS011;69030;48.126;7.816;2023-07-02T06:45:34;17.77;;;9.10;;
79566;SDS011;69030;48.126;7.816;2023-07-02T06:47:59;19.45;;;9.80;;
79566;SDS011;69030;48.126;7.816;2023-07-02T06:50:25;23.70;;;11.70;;
79566;SDS011;69030;48.126;7.816;2023-07-02T06:52:50;20.27;;;10.02;;
79566;SDS011;69030;48.126;7.816;2023-07-02T06:55:15;19.60;;;10.45;;
79566;SDS011;69030;48.126;7.816;2023-07-02T06:57:41;16.95;;;9.65;;
79566;SDS011;69030;48.126;7.816;2023-07-02T07:00:09;19.75;;;11.73;;
79566;SDS011;69030;48.126;7.816;2023-07-02T07:02:35;23.45;;;11.15;;
79566;SDS011;69030;48.126;7.816;2023-07-02T07:05:00;18.50;;;11.07;;
79566;SDS011;69030;48.126;7.816;2023-07-02T07:07:25;23.08;;;11.20;;
79566;SDS011;69030;48.126;7.816;2023-07-02T07:09:51;23.98;;;12.43;;
79566;SDS011;69030;48.126;7.816;2023-07-02T07:12:16;21.50;;;10.95;;
79566;SDS011;69030;48.126;7.816;2023-07-02T07:14:41;24.58;;;12.25;;
79566;SDS011;69030;48.126;7.816;2023-07-02T07:17:08;20.52;;;11.23;;
79566;SDS011;69030;48.126;7.816;2023-07-02T07:19:33;22.35;;;10.77;;
79566;SDS011;69030;48.126;7.816;2023-07-02T07:21:59;22.20;;;11.60;;
79566;SDS011;69030;48.126;7.816;2023-07-02T07:24:24;25.73;;;12.75;;
79566;SDS011;69030;48.126;7.816;2023-07-02T07:26:49;19.65;;;10.50;;
79566;SDS011;69030;48.126;7.816;2023-07-02T07:29:15;25.48;;;11.73;;
79566;SDS011;69030;48.126;7.816;2023-07-02T07:31:40;28.92;;;11.82;;
79566;SDS011;69030;48.126;7.816;2023-07-02T07:34:05;25.17;;;12.68;;
79566;SDS011;69030;48.126;7.816;2023-07-02T07:36:31;24.27;;;12.13;;
79566;SDS011;69030;48.126;7.816;2023-07-02T07:38:56;23.27;;;10.98;;
79566;SDS011;69030;48.126;7.816;2023-07-02T07:41:22;22.02;;;9.90;;
79566;SDS011;69030;48.126;7.816;2023-07-02T07:43:47;19.58;;;10.88;;
79566;SDS011;69030;48.126;7.816;2023-07-02T07:46:12;21.23;;;11.70;;
79566;SDS011;69030;48.126;7.816;2023-07-02T07:48:38;24.77;;;11.57;;
79566;SDS011;69030;48.126;7.816;2023-07-02T07:51:03;27.05;;;11.82;;
79566;SDS011;69030;48.126;7.816;2023-07-02T07:53:28;26.23;;;12.13;;
79566;SDS011;69030;48.126;7.816;2023-07-02T07:55:54;24.98;;;13.13;;
79566;SDS011;69030;48.126;7.816;2023-07-02T07:58:19;23.23;;;11.85;;
79566;SDS011;69030;48.126;7.816;2023-07-02T08:00:44;25.88;;;12.35;;
79566;SDS011;69030;48.126;7.816;2023-07-02T08:03:10;23.20;;;12.07;;
79566;SDS011;69030;48.126;7.816;2023-07-02T08:05:35;25.55;;;12.65;;
79566;SDS011;69030;48.126;7.816;2023-07-02T08:08:01;26.38;;;13.60;;
79566;SDS011;69030;48.126;7.816;2023-07-02T08:10:27;23.58;;;11.10;;
79566;SDS011;69030;48.126;7.816;2023-07-02T08:12:52;22.88;;;12.27;;
79566;SDS011;69030;48.126;7.816;2023-07-02T08:15:18;23.55;;;13.15;;
79566;SDS011;69030;48.126;7.816;2023-07-02T08:17:44;25.75;;;13.43;;
79566;SDS011;69030;48.126;7.816;2023-07-02T08:20:09;27.17;;;12.95;;
79566;SDS011;69030;48.126;7.816;2023-07-02T08:22:37;28.73;;;13.80;;
79566;SDS011;69030;48.126;7.816;2023-07-02T08:25:02;23.55;;;12.18;;
79566;SDS011;69030;48.126;7.816;2023-07-02T08:27:28;27.75;;;13.90;;
79566;SDS011;69030;48.126;7.816;2023-07-02T08:29:53;26.30;;;16.23;;
79566;SDS011;69030;48.126;7.816;2023-07-02T08:32:19;31.88;;;12.43;;
79566;SDS011;69030;48.126;7.816;2023-07-02T08:34:44;24.30;;;14.35;;
79566;SDS011;69030;48.126;7.816;2023-07-02T08:37:09;29.38;;;13.93;;
79566;SDS011;69030;48.126;7.816;2023-07-02T08:39:35;30.73;;;13.38;;
79566;SDS011;69030;48.126;7.816;2023-07-02T08:42:02;29.10;;;13.05;;
79566;SDS011;69030;48.126;7.816;2023-07-02T08:44:28;31.30;;;13.23;;
79566;SDS011;69030;48.126;7.816;2023-07-02T08:46:53;29.73;;;13.52;;
79566;SDS011;69030;48.126;7.816;2023-07-02T08:49:21;28.00;;;14.77;;
79566;SDS011;69030;48.126;7.816;2023-07-02T08:51:46;27.58;;;12.35;;
79566;SDS011;69030;48.126;7.816;2023-07-02T08:54:12;23.75;;;13.60;;
79566;SDS011;69030;48.126;7.816;2023-07-02T08:56:40;28.38;;;15.45;;
79566;SDS011;69030;48.126;7.816;2023-07-02T08:59:06;25.83;;;12.77;;
79566;SDS011;69030;48.126;7.816;2023-07-02T09:01:32;28.02;;;13.75;;
79566;SDS011;69030;48.126;7.816;2023-07-02T09:04:00;26.25;;;12.73;;
79566;SDS011;69030;48.126;7.816;2023-07-02T09:06:25;23.15;;;13.15;;
79566;SDS011;69030;48.126;7.816;2023-07-02T09:08:51;25.65;;;12.60;;
79566;SDS011;69030;48.126;7.816;2023-07-02T09:11:16;22.10;;;12.85;;
79566;SDS011;69030;48.126;7.816;2023-07-02T09:13:46;26.30;;;12.85;;
79566;SDS011;69030;48.126;7.816;2023-07-02T09:16:22;25.38;;;12.90;;
79566;SDS011;69030;48.126;7.816;2023-07-02T09:18:55;24.23;;;12.55;;
79566;SDS011;69030;48.126;7.816;2023-07-02T09:21:48;25.67;;;13.50;;
79566;SDS011;69030;48.126;7.816;2023-07-02T09:24:17;24.98;;;12.57;;
79566;SDS011;69030;48.126;7.816;2023-07-02T09:26:46;21.90;;;12.02;;
79566;SDS011;69030;48.126;7.816;2023-07-02T09:29:16;23.27;;;12.57;;
79566;SDS011;69030;48.126;7.816;2023-07-02T09:31:47;25.48;;;12.77;;
79566;SDS011;69030;48.126;7.816;2023-07-02T09:34:13;23.83;;;12.80;;
79566;SDS011;69030;48.126;7.816;2023-07-02T09:36:38;21.10;;;12.85;;
79566;SDS011;69030;48.126;7.816;2023-07-02T09:39:11;25.40;;;12.73;;
79566;SDS011;69030;48.126;7.816;2023-07-02T09:41:38;27.52;;;12.90;;
79566;SDS011;69030;48.126;7.816;2023-07-02T09:44:04;25.33;;;12.32;;
79566;SDS011;69030;48.126;7.816;2023-07-02T09:46:30;26.50;;;12.57;;
79566;SDS011;69030;48.126;7.816;2023-07-02T09:48:56;20.60;;;11.20;;
79566;SDS011;69030;48.126;7.816;2023-07-02T09:51:23;27.63;;;12.45;;
79566;SDS011;69030;48.126;7.816;2023-07-02T09:53:48;24.88;;;12.45;;
79566;SDS011;69030;48.126;7.816;2023-07-02T09:56:16;25.92;;;12.23;;
79566;SDS011;69030;48.126;7.816;2023-07-02T09:58:43;20.80;;;11.60;;
79566;SDS011;69030;48.126;7.816;2023-07-02T10:01:09;25.42;;;13.02;;
79566;SDS011;69030;48.126;7.816;2023-07-02T10:03:35;24.20;;;13.35;;
79566;SDS011;69030;48.126;7.816;2023-07-02T10:06:06;24.33;;;12.60;;
79566;SDS011;69030;48.126;7.816;2023-07-02T10:08:35;24.15;;;13.68;;
79566;SDS011;69030;48.126;7.816;2023-07-02T10:11:11;23.58;;;13.20;;
79566;SDS011;69030;48.126;7.816;2023-07-02T10:13:38;24.63;;;14.10;;
79566;SDS011;69030;48.126;7.816;2023-07-02T10:16:04;23.77;;;12.93;;
79566;SDS011;69030;48.126;7.816;2023-07-02T10:18:30;25.23;;;13.18;;
79566;SDS011;69030;48.126;7.816;2023-07-02T10:20:55;27.73;;;13.80;;
79566;SDS011;69030;48.126;7.816;2023-07-02T10:23:22;28.67;;;13.43;;
79566;SDS011;69030;48.126;7.816;2023-07-02T10:25:58;29.52;;;13.85;;
79566;SDS011;69030;48.126;7.816;2023-07-02T10:28:23;25.10;;;13.18;;
79566;SDS011;69030;48.126;7.816;2023-07-02T10:30:51;27.60;;;12.38;;
79566;SDS011;69030;48.126;7.816;2023-07-02T10:33:18;24.30;;;11.43;;
79566;SDS011;69030;48.126;7.816;2023-07-02T10:35:44;26.35;;;13.85;;
79566;SDS011;69030;48.126;7.816;2023-07-02T10:38:17;25.08;;;13.45;;
79566;SDS011;69030;48.126;7.816;2023-07-02T10:40:45;26.33;;;12.20;;
79566;SDS011;69030;48.126;7.816;2023-07-02T10:43:10;27.85;;;14.43;;
79566;SDS011;69030;48.126;7.816;2023-07-02T10:45:36;23.45;;;13.55;;
79566;SDS011;69030;48.126;7.816;2023-07-02T10:48:02;23.83;;;13.48;;
79566;SDS011;69030;48.126;7.816;2023-07-02T10:50:33;26.95;;;14.02;;
79566;SDS011;69030;48.126;7.816;2023-07-02T10:52:59;26.50;;;13.95;;
79566;SDS011;69030;48.126;7.816;2023-07-02T10:55:25;21.70;;;12.88;;
79566;SDS011;69030;48.126;7.816;2023-07-02T10:58:01;25.73;;;13.13;;
79566;SDS011;69030;48.126;7.816;2023-07-02T11:00:31;30.75;;;13.18;;
79566;SDS011;69030;48.126;7.816;2023-07-02T11:02:57;23.25;;;12.05;;
79566;SDS011;69030;48.126;7.816;2023-07-02T11:05:23;29.63;;;12.60;;
79566;SDS011;69030;48.126;7.816;2023-07-02T11:07:48;20.75;;;11.20;;
79566;SDS011;69030;48.126;7.816;2023-07-02T11:10:21;24.33;;;13.18;;
79566;SDS011;69030;48.126;7.816;2023-07-02T11:12:47;24.23;;;13.10;;
79566;SDS011;69030;48.126;7.816;2023-07-02T11:15:13;21.05;;;10.82;;
79566;SDS011;69030;48.126;7.816;2023-07-02T11:17:39;25.90;;;11.90;;
79566;SDS011;69030;48.126;7.816;2023-07-02T11:20:08;25.08;;;12.93;;
79566;SDS011;69030;48.126;7.816;2023-07-02T11:22:34;23.58;;;12.45;;
79566;SDS011;69030;48.126;7.816;2023-07-02T11:25:14;23.08;;;12.07;;
79566;SDS011;69030;48.126;7.816;2023-07-02T11:27:41;24.20;;;12.07;;
79566;SDS011;69030;48.126;7.816;2023-07-02T11:30:06;21.30;;;12.23;;
79566;SDS011;69030;48.126;7.816;2023-07-02T11:32:35;25.75;;;12.55;;
79566;SDS011;69030;48.126;7.816;2023-07-02T11:35:11;23.05;;;12.50;;
79566;SDS011;69030;48.126;7.816;2023-07-02T11:37:36;25.27;;;11.02;;
79566;SDS011;69030;48.126;7.816;2023-07-02T11:40:02;20.42;;;12.05;;
79566;SDS011;69030;48.126;7.816;2023-07-02T11:42:29;24.02;;;11.10;;
79566;SDS011;69030;48.126;7.816;2023-07-02T11:44:55;18.02;;;10.70;;
79566;SDS011;69030;48.126;7.816;2023-07-02T11:47:20;22.98;;;13.13;;
79566;SDS011;69030;48.126;7.816;2023-07-02T11:49:45;21.50;;;11.10;;
79566;SDS011;69030;48.126;7.816;2023-07-02T11:52:13;22.85;;;11.43;;
79566;SDS011;69030;48.126;7.816;2023-07-02T11:54:39;20.35;;;11.38;;
79566;SDS011;69030;48.126;7.816;2023-07-02T11:57:05;20.23;;;11.23;;
79566;SDS011;69030;48.126;7.816;2023-07-02T11:59:31;18.90;;;11.70;;
79566;SDS011;69030;48.126;7.816;2023-07-02T12:01:59;22.63;;;10.32;;
79566;SDS011;69030;48.126;7.816;2023-07-02T12:04:24;18.25;;;10.77;;
79566;SDS011;69030;48.126;7.816;2023-07-02T12:06:55;22.27;;;12.57;;
79566;SDS011;69030;48.126;7.816;2023-07-02T12:09:21;20.60;;;9.82;;
79566;SDS011;69030;48.126;7.816;2023-07-02T12:11:46;20.13;;;11.52;;
79566;SDS011;69030;48.126;7.816;2023-07-02T12:14:11;23.95;;;11.15;;
79566;SDS011;69030;48.126;7.816;2023-07-02T12:16:37;19.15;;;10.82;;
79566;SDS011;69030;48.126;7.816;2023-07-02T12:19:05;17.40;;;9.70;;
79566;SDS011;69030;48.126;7.816;2023-07-02T12:21:31;17.33;;;9.88;;
79566;SDS011;69030;48.126;7.816;2023-07-02T12:23:56;16.02;;;9.65;;
79566;SDS011;69030;48.126;7.816;2023-07-02T12:26:22;18.05;;;9.00;;
79566;SDS011;69030;48.126;7.816;2023-07-02T12:28:47;16.05;;;9.52;;
79566;SDS011;69030;48.126;7.816;2023-07-02T12:31:12;18.50;;;8.68;;
79566;SDS011;69030;48.126;7.816;2023-07-02T12:33:38;20.83;;;10.20;;
79566;SDS011;69030;48.126;7.816;2023-07-02T12:36:04;21.73;;;10.20;;
79566;SDS011;69030;48.126;7.816;2023-07-02T12:38:30;19.65;;;10.75;;
79566;SDS011;69030;48.126;7.816;2023-07-02T12:40:55;18.65;;;10.15;;
79566;SDS011;69030;48.126;7.816;2023-07-02T12:43:21;17.83;;;9.77;;
79566;SDS011;69030;48.126;7.816;2023-07-02T12:45:46;19.45;;;10.48;;
79566;SDS011;69030;48.126;7.816;2023-07-02T12:48:12;17.67;;;9.18;;
79566;SDS011;69030;48.126;7.816;2023-07-02T12:50:37;17.83;;;9.93;;
79566;SDS011;69030;48.126;7.816;2023-07-02T12:53:04;18.13;;;9.35;;
79566;SDS011;69030;48.126;7.816;2023-07-02T12:55:33;17.98;;;8.70;;
79566;SDS011;69030;48.126;7.816;2023-07-02T12:57:58;18.33;;;10.10;;
79566;SDS011;69030;48.126;7.816;2023-07-02T13:00:24;18.98;;;9.93;;
79566;SDS011;69030;48.126;7.816;2023-07-02T13:02:50;18.75;;;9.77;;
79566;SDS011;69030;48.126;7.816;2023-07-02T13:05:15;16.10;;;8.02;;
79566;SDS011;69030;48.126;7.816;2023-07-02T13:07:41;16.77;;;9.20;;
79566;SDS011;69030;48.126;7.816;2023-07-02T13:10:06;17.52;;;9.85;;
79566;SDS011;69030;48.126;7.816;2023-07-02T13:12:32;18.33;;;9.13;;
79566;SDS011;69030;48.126;7.816;2023-07-02T13:14:57;18.65;;;10.13;;
79566;SDS011;69030;48.126;7.816;2023-07-02T13:17:23;16.52;;;10.13;;
79566;SDS011;69030;48.126;7.816;2023-07-02T13:19:48;16.13;;;9.25;;
79566;SDS011;69030;48.126;7.816;2023-07-02T13:22:14;19.67;;;9.88;;
79566;SDS011;69030;48.126;7.816;2023-07-02T13:24:43;14.25;;;9.27;;
79566;SDS011;69030;48.126;7.816;2023-07-02T13:27:11;16.15;;;9.45;;
79566;SDS011;69030;48.126;7.816;2023-07-02T13:29:38;17.98;;;9.90;;
79566;SDS011;69030;48.126;7.816;2023-07-02T13:32:04;16.92;;;9.98;;
79566;SDS011;69030;48.126;7.816;2023-07-02T13:34:29;16.98;;;9.15;;
79566;SDS011;69030;48.126;7.816;2023-07-02T13:36:55;16.95;;;9.63;;
79566;SDS011;69030;48.126;7.816;2023-07-02T13:39:20;17.88;;;10.68;;
79566;SDS011;69030;48.126;7.816;2023-07-02T13:41:46;22.20;;;10.05;;
79566;SDS011;69030;48.126;7.816;2023-07-02T13:44:11;18.52;;;11.07;;
79566;SDS011;69030;48.126;7.816;2023-07-02T13:46:36;19.02;;;10.05;;
79566;SDS011;69030;48.126;7.816;2023-07-02T13:49:02;19.75;;;10.15;;
79566;SDS011;69030;48.126;7.816;2023-07-02T13:51:27;20.30;;;10.15;;
79566;SDS011;69030;48.126;7.816;2023-07-02T13:53:52;20.73;;;11.32;;
79566;SDS011;69030;48.126;7.816;2023-07-02T13:56:18;17.10;;;10.13;;
79566;SDS011;69030;48.126;7.816;2023-07-02T14:01:21;17.92;;;10.55;;
79566;SDS011;69030;48.126;7.816;2023-07-02T14:03:46;21.38;;;11.57;;
79566;SDS011;69030;48.126;7.816;2023-07-02T14:06:12;19.35;;;10.50;;
79566;SDS011;69030;48.126;7.816;2023-07-02T14:08:37;17.75;;;10.45;;
79566;SDS011;69030;48.126;7.816;2023-07-02T14:11:03;17.42;;;10.75;;
79566;SDS011;69030;48.126;7.816;2023-07-02T14:13:28;18.63;;;10.55;;
79566;SDS011;69030;48.126;7.816;2023-07-02T14:15:53;23.00;;;11.20;;
79566;SDS011;69030;48.126;7.816;2023-07-02T14:18:19;17.85;;;11.30;;
79566;SDS011;69030;48.126;7.816;2023-07-02T14:20:44;17.65;;;10.70;;
79566;SDS011;69030;48.126;7.816;2023-07-02T14:23:09;19.25;;;11.20;;
79566;SDS011;69030;48.126;7.816;2023-07-02T14:25:35;17.08;;;9.98;;
79566;SDS011;69030;48.126;7.816;2023-07-02T14:28:00;19.83;;;10.55;;
79566;SDS011;69030;48.126;7.816;2023-07-02T14:30:25;17.20;;;9.75;;
79566;SDS011;69030;48.126;7.816;2023-07-02T14:32:51;17.33;;;10.57;;
79566;SDS011;69030;48.126;7.816;2023-07-02T14:35:16;18.90;;;10.27;;
79566;SDS011;69030;48.126;7.816;2023-07-02T14:37:42;17.45;;;9.45;;